Time;durP1;ratioP1;P1;durP2;ratioP2;P2;SDS_P1;SDS_P2;PMS_P1;PMS_P2;Temp;Humidity;BMP_temperature;BMP_pressure;BME280_temperature;BME280_humidity;BME280_pressure;Samples;Min_cycle;Max_cycle;Signal;HPM_P1;HPM_P2
2021/07/02 00:02:16;;;;;;;18.77;6.83;;;;;;;16.65;75.63;98545.11;2073654;86;21044;-61
2021/07/02 00:05:16;;;;;;;19.95;6.60;;;;;;;16.61;75.58;98545.03;2036024;87;20992;-71
2021/07/02 00:08:17;;;;;;;18.98;5.72;;;;;;;16.67;75.59;98546.28;2073447;84;21589;-73
2021/07/02 00:11:17;;;;;;;20.30;6.28;;;;;;;16.76;75.55;98555.53;2073282;86;21102;-79
2021/07/02 00:14:18;;;;;;;17.62;6.58;;;;;;;16.78;75.29;98554.92;2073791;86;21062;-78
2021/07/02 00:17:18;;;;;;;19.32;7.12;;;;;;;16.87;75.73;98552.41;2073648;86;21054;-75
2021/07/02 00:20:18;;;;;;;21.25;7.05;;;;;;;16.94;75.34;98554.38;2073808;86;21051;-68
2021/07/02 00:23:19;;;;;;;24.02;7.30;;;;;;;16.95;75.32;98557.39;2073638;86;21015;-76
2021/07/02 00:26:19;;;;;;;19.92;6.70;;;;;;;16.90;75.26;98563.58;2073442;86;21565;-75
2021/07/02 00:29:20;;;;;;;19.87;6.80;;;;;;;16.82;75.50;98565.23;2073720;86;21530;-68
2021/07/02 00:32:20;;;;;;;21.50;6.90;;;;;;;16.76;75.76;98552.88;2073899;86;21035;-71
2021/07/02 00:35:21;;;;;;;21.50;6.50;;;;;;;16.64;76.09;98523.56;2073564;86;21031;-74
2021/07/02 00:38:21;;;;;;;22.07;6.75;;;;;;;16.68;76.08;98536.88;2073978;85;21072;-75
2021/07/02 00:41:22;;;;;;;20.68;6.45;;;;;;;16.58;76.51;98539.52;2073765;86;21035;-74
2021/07/02 00:44:23;;;;;;;19.82;6.87;;;;;;;16.70;76.01;98545.50;2073361;86;21042;-61
2021/07/02 00:47:23;;;;;;;19.92;6.10;;;;;;;16.70;76.01;98545.50;2073170;86;21032;-62
2021/07/02 00:50:24;;;;;;;17.98;6.53;;;;;;;16.73;75.79;98543.07;2073337;84;21010;-61
2021/07/02 00:53:24;;;;;;;21.05;6.65;;;;;;;16.78;75.85;98540.85;2073945;86;21491;-61
2021/07/02 00:56:25;;;;;;;18.70;6.55;;;;;;;16.84;75.54;98539.42;2073536;86;20999;-61
2021/07/02 00:59:25;;;;;;;22.02;7.22;;;;;;;16.84;75.66;98540.75;2073790;86;21011;-61
2021/07/02 01:02:26;;;;;;;19.23;7.58;;;;;;;16.88;75.34;98540.85;2073908;86;21063;-61
2021/07/02 01:05:26;;;;;;;21.25;8.13;;;;;;;16.86;75.28;98530.37;2073749;86;20992;-61
2021/07/02 01:08:27;;;;;;;21.35;8.10;;;;;;;16.92;75.45;98540.45;2036673;87;21043;-61
2021/07/02 01:11:27;;;;;;;20.32;8.03;;;;;;;16.95;75.29;98543.28;2080411;86;21599;-62
2021/07/02 01:14:28;;;;;;;22.87;8.50;;;;;;;16.92;75.51;98532.98;2080527;86;21028;-61
2021/07/02 01:17:29;;;;;;;23.15;7.97;;;;;;;16.85;75.60;98532.69;2080428;86;21021;-61
2021/07/02 01:20:29;;;;;;;20.27;7.80;;;;;;;16.74;76.09;98530.19;2080719;86;21044;-61
2021/07/02 01:23:31;;;;;;;20.88;7.40;;;;;;;16.62;76.17;98532.11;2080745;86;21037;-61
2021/07/02 01:26:31;;;;;;;19.67;7.30;;;;;;;16.51;76.37;98529.63;2080571;86;21008;-61
2021/07/02 01:29:32;;;;;;;19.87;7.05;;;;;;;16.42;76.59;98532.13;2080424;86;21048;-61
2021/07/02 01:32:32;;;;;;;20.43;7.20;;;;;;;16.37;77.03;98530.36;2080368;86;21056;-61
2021/07/02 01:35:33;;;;;;;21.37;7.92;;;;;;;16.34;76.99;98528.50;2080552;86;21041;-71
2021/07/02 01:38:33;;;;;;;24.10;7.80;;;;;;;16.33;77.38;98528.14;2080488;86;21036;-72
2021/07/02 01:41:34;;;;;;;23.15;8.33;;;;;;;16.32;77.57;98533.08;2080452;86;21005;-72
2021/07/02 01:44:34;;;;;;;21.73;7.83;;;;;;;16.28;77.47;98539.97;2080746;86;21507;-69
2021/07/02 01:47:35;;;;;;;21.90;7.67;;;;;;;16.26;77.42;98538.42;2080330;86;21060;-76
2021/07/02 01:50:35;;;;;;;20.45;7.22;;;;;;;16.21;77.26;98533.55;2080874;84;20985;-72
2021/07/02 01:53:36;;;;;;;19.90;5.92;;;;;;;16.21;77.29;98528.76;2080791;86;20986;-77
2021/07/02 01:56:36;;;;;;;18.45;5.92;;;;;;;16.14;77.47;98529.78;2080333;86;21025;-74
2021/07/02 01:59:37;;;;;;;18.00;6.37;;;;;;;16.14;77.57;98527.63;2080677;86;21061;-77
2021/07/02 02:02:38;;;;;;;21.90;6.37;;;;;;;16.19;77.32;98526.25;2080836;86;21004;-72
2021/07/02 02:05:38;;;;;;;17.27;5.72;;;;;;;16.19;77.17;98527.57;2040352;87;21070;-66
2021/07/02 02:08:39;;;;;;;21.27;6.20;;;;;;;16.13;77.33;98525.45;2078441;84;21578;-67
2021/07/02 02:11:39;;;;;;;18.02;5.10;;;;;;;16.08;77.81;98530.33;2073655;86;21614;-74
2021/07/02 02:14:40;;;;;;;17.50;5.83;;;;;;;16.04;77.62;98532.89;2073324;86;21079;-70
2021/07/02 02:17:40;;;;;;;18.50;5.50;;;;;;;16.00;77.48;98530.16;2073663;85;21011;-72
2021/07/02 02:20:41;;;;;;;16.87;5.83;;;;;;;15.96;77.73;98538.02;2036097;87;21161;-75
2021/07/02 02:23:42;;;;;;;19.07;5.83;;;;;;;15.92;77.65;98543.58;2073790;86;20989;-73
2021/07/02 02:26:42;;;;;;;17.75;6.10;;;;;;;15.87;77.85;98542.30;2073789;86;21000;-72
2021/07/02 02:29:43;;;;;;;16.77;5.35;;;;;;;15.82;77.73;98551.14;2073798;86;21044;-72
2021/07/02 02:32:43;;;;;;;18.70;5.42;;;;;;;15.79;77.93;98545.63;2073685;86;21052;-73
2021/07/02 02:35:44;;;;;;;17.40;5.95;;;;;;;15.78;78.24;98553.17;2073894;86;21494;-64
2021/07/02 02:38:44;;;;;;;15.23;5.75;;;;;;;15.79;78.26;98551.38;2073594;86;21049;-75
2021/07/02 02:41:45;;;;;;;17.15;5.75;;;;;;;15.80;78.14;98559.18;2073837;86;21067;-61
2021/07/02 02:44:45;;;;;;;18.25;6.45;;;;;;;15.88;78.21;98548.78;2073848;86;21039;-62
2021/07/02 02:47:45;;;;;;;18.12;6.50;;;;;;;15.91;77.92;98547.68;2073873;86;20960;-61
2021/07/02 02:50:46;;;;;;;18.80;6.20;;;;;;;15.94;78.09;98546.91;2073784;86;20995;-61
2021/07/02 02:53:46;;;;;;;21.60;6.55;;;;;;;15.97;78.23;98551.59;2073564;86;21010;-61
2021/07/02 02:59:49;;;;;;;;;;;;;;;15.92;77.96;98546.72;2077900;85;21115;-61
2021/07/02 03:02:49;;;;;;;17.32;5.30;;;;;;;15.86;78.06;98553.84;2073746;86;20216;-76
2021/07/02 03:05:50;;;;;;;15.05;5.20;;;;;;;15.81;78.26;98551.61;2073312;86;21067;-67
2021/07/02 03:08:50;;;;;;;16.02;5.20;;;;;;;15.78;78.38;98553.17;2073545;84;21071;-72
2021/07/02 03:11:52;;;;;;;17.07;4.72;;;;;;;15.72;78.60;98545.28;2073967;86;21023;-70
2021/07/02 03:14:53;;;;;;;14.77;4.37;;;;;;;15.72;78.58;98554.54;2036480;87;21039;-70
2021/07/02 03:17:54;;;;;;;14.30;4.45;;;;;;;15.73;78.62;98566.80;2073843;86;20996;-74
2021/07/02 03:20:54;;;;;;;13.60;4.05;;;;;;;15.76;78.61;98569.17;2073653;86;21063;-72
2021/07/02 03:23:55;;;;;;;16.27;4.20;;;;;;;15.79;78.67;98570.75;2073886;86;21057;-75
2021/07/02 03:26:55;;;;;;;14.45;4.28;;;;;;;15.81;78.35;98571.94;2073747;86;21054;-77
2021/07/02 03:29:56;;;;;;;12.33;4.20;;;;;;;15.90;78.26;98575.09;2073764;86;21067;-76
2021/07/02 03:32:56;;;;;;;14.10;4.03;;;;;;;15.89;78.26;98577.41;2073741;86;20992;-72
2021/07/02 03:35:57;;;;;;;14.03;3.72;;;;;;;15.87;78.24;98577.52;2073592;86;21059;-73
2021/07/02 03:38:57;;;;;;;13.32;4.10;;;;;;;15.89;78.28;98578.23;2073788;85;21035;-70
2021/07/02 03:41:58;;;;;;;12.58;3.58;;;;;;;15.94;78.44;98579.97;2073708;86;21036;-73
2021/07/02 03:44:59;;;;;;;16.60;3.92;;;;;;;15.97;78.45;98582.02;2073639;85;21007;-72
2021/07/02 03:47:59;;;;;;;12.70;4.22;;;;;;;16.04;78.32;98585.80;2073442;86;21047;-75
2021/07/02 03:50:59;;;;;;;14.63;4.20;;;;;;;16.09;78.21;98590.18;2073997;86;21059;-71
2021/07/02 03:54:00;;;;;;;12.70;4.10;;;;;;;16.21;78.18;98598.37;2073596;86;21094;-73
2021/07/02 04:00:03;;;;;;;;;;;;;;;16.42;77.90;98594.33;2077677;86;21056;-78
2021/07/02 04:03:03;;;;;;;12.05;3.70;;;;;;;16.52;77.98;98594.35;2073497;86;20148;-69
2021/07/02 04:06:04;;;;;;;9.30;3.52;;;;;;;16.60;77.53;98599.77;2073545;85;21043;-71
2021/07/02 04:09:04;;;;;;;11.43;3.80;;;;;;;16.68;77.17;98598.25;2073516;84;21114;-71
2021/07/02 04:12:05;;;;;;;9.53;3.40;;;;;;;16.71;76.93;98608.09;2073972;86;21538;-70
2021/07/02 04:15:05;;;;;;;7.80;3.30;;;;;;;16.74;76.49;98605.16;2073791;86;21550;-67
2021/07/02 04:18:07;;;;;;;10.50;3.55;;;;;;;16.71;76.54;98610.73;2074058;86;21051;-66
2021/07/02 04:21:08;;;;;;;8.60;3.42;;;;;;;16.62;76.48;98613.73;2034001;88;21584;-61
2021/07/02 04:24:08;;;;;;;9.30;3.67;;;;;;;16.59;77.12;98614.01;2027785;88;20996;-69
2021/07/02 04:27:08;;;;;;;9.10;3.58;;;;;;;16.53;76.91;98615.86;2027815;87;21016;-61
2021/07/02 04:30:09;;;;;;;13.78;4.47;;;;;;;16.50;77.39;98623.25;2027570;87;21032;-66
2021/07/02 04:33:09;;;;;;;10.08;3.85;;;;;;;16.51;76.83;98621.78;2027704;87;21561;-70
2021/07/02 04:36:10;;;;;;;11.50;3.50;;;;;;;16.54;76.86;98627.30;2027533;87;21522;-72
2021/07/02 04:39:10;;;;;;;25.37;7.67;;;;;;;16.51;76.78;98626.26;2027646;86;20960;-63
2021/07/02 04:42:11;;;;;;;8.93;3.20;;;;;;;16.54;76.62;98628.13;2027654;86;20976;-61
2021/07/02 04:45:11;;;;;;;7.95;3.20;;;;;;;16.59;76.55;98625.92;2027920;87;21007;-61
2021/07/02 04:48:12;;;;;;;13.62;3.87;;;;;;;16.59;75.51;98633.00;2027596;88;21090;-63
2021/07/02 04:51:12;;;;;;;32.55;7.33;;;;;;;16.62;75.50;98641.53;2027795;87;20991;-61
2021/07/02 04:54:12;;;;;;;12.13;3.60;;;;;;;16.65;75.73;98636.92;2027612;87;20976;-62
2021/07/02 04:57:13;;;;;;;9.05;3.45;;;;;;;16.65;75.80;98640.42;2027272;88;21483;-62
2021/07/02 05:00:14;;;;;;;16.60;4.62;;;;;;;16.67;75.61;98632.34;2027552;87;20971;-61
2021/07/02 05:03:14;;;;;;;8.38;2.98;;;;;;;16.72;75.69;98634.08;2027708;87;21043;-61
2021/07/02 05:06:15;;;;;;;10.18;3.50;;;;;;;16.76;75.43;98631.00;2027893;87;21053;-61
2021/07/02 05:09:15;;;;;;;10.05;3.40;;;;;;;16.80;75.23;98627.61;2027997;86;21024;-64
2021/07/02 05:12:16;;;;;;;23.67;6.67;;;;;;;16.77;75.64;98632.69;2029625;88;21047;-61
2021/07/02 05:15:16;;;;;;;14.58;3.85;;;;;;;16.77;75.08;98630.54;2029301;88;21059;-61
2021/07/02 05:18:17;;;;;;;10.85;3.25;;;;;;;16.86;75.35;98630.20;2035860;87;21487;-62
2021/07/02 05:21:17;;;;;;;9.45;3.40;;;;;;;17.00;74.91;98632.96;2076235;86;21497;-61
2021/07/02 05:24:18;;;;;;;9.28;3.20;;;;;;;17.13;74.17;98629.03;2076198;86;21014;-61
2021/07/02 05:27:18;;;;;;;9.90;3.55;;;;;;;17.40;74.97;98623.51;2076229;86;21035;-61
2021/07/02 05:30:18;;;;;;;10.03;3.15;;;;;;;17.57;73.06;98626.39;2076342;86;21070;-62
2021/07/02 05:33:19;;;;;;;7.95;3.45;;;;;;;17.59;72.12;98621.30;2076298;86;21022;-65
2021/07/02 05:36:19;;;;;;;8.53;3.30;;;;;;;17.74;72.16;98627.47;2076252;86;21091;-62
2021/07/02 05:39:20;;;;;;;10.70;3.60;;;;;;;17.83;71.93;98627.95;2076199;85;21014;-61
2021/07/02 05:42:23;;;;;;;14.00;4.30;;;;;;;17.88;72.06;98624.35;2076762;86;21557;-61
2021/07/02 05:45:23;;;;;;;12.55;4.05;;;;;;;17.98;70.91;98629.16;2071293;85;21549;-62
2021/07/02 05:48:24;;;;;;;14.15;4.15;;;;;;;18.03;71.43;98627.42;2074580;85;20996;-61
2021/07/02 05:51:24;;;;;;;9.93;3.55;;;;;;;18.17;69.99;98627.41;2076032;86;21011;-62
2021/07/02 05:54:24;;;;;;;8.13;3.40;;;;;;;18.27;69.87;98623.38;2076237;86;21011;-62
2021/07/02 05:57:25;;;;;;;10.70;3.50;;;;;;;18.46;70.25;98621.95;2076172;86;20971;-66
2021/07/02 06:00:25;;;;;;;10.45;3.67;;;;;;;18.70;69.20;98617.41;2076690;86;21027;-76
2021/07/02 06:03:26;;;;;;;8.93;3.58;;;;;;;18.80;69.09;98619.97;2076287;86;21000;-68
2021/07/02 06:06:26;;;;;;;8.43;3.60;;;;;;;18.95;68.65;98625.64;2035970;86;20977;-74
2021/07/02 06:09:29;;;;;;;7.78;3.05;;;;;;;19.09;67.58;98620.77;2075263;86;21017;-74
2021/07/02 06:12:29;;;;;;;8.55;3.12;;;;;;;19.30;66.92;98641.72;2073593;86;20984;-66
2021/07/02 06:15:30;;;;;;;10.03;3.55;;;;;;;19.39;66.37;98633.66;2073772;85;21553;-72
2021/07/02 06:18:30;;;;;;;17.02;4.30;;;;;;;19.59;66.84;98629.45;2073601;86;21514;-70
2021/07/02 06:21:31;;;;;;;8.43;3.30;;;;;;;19.76;66.19;98629.06;2073546;86;21054;-71
2021/07/02 06:24:31;;;;;;;9.53;4.05;;;;;;;20.04;66.44;98638.22;2073592;86;21006;-74
2021/07/02 06:27:31;;;;;;;11.68;4.10;;;;;;;19.83;64.65;98630.13;2073500;86;21027;-71
2021/07/02 06:30:32;;;;;;;10.13;3.90;;;;;;;19.65;64.86;98634.17;2073358;86;21052;-71
2021/07/02 06:33:33;;;;;;;10.28;3.83;;;;;;;19.47;63.63;98637.36;2073867;86;20987;-61
2021/07/02 06:36:33;;;;;;;12.23;3.95;;;;;;;19.50;65.20;98625.91;2073773;86;21032;-62
2021/07/02 06:39:34;;;;;;;12.53;3.90;;;;;;;19.65;63.87;98625.33;2073852;86;21016;-62
2021/07/02 06:42:34;;;;;;;10.90;3.90;;;;;;;19.90;64.89;98629.02;2073840;86;21606;-62
2021/07/02 06:45:34;;;;;;;12.80;4.10;;;;;;;20.05;63.33;98626.08;2073960;86;21495;-62
2021/07/02 06:48:35;;;;;;;12.68;3.95;;;;;;;20.18;63.03;98623.48;2073547;86;21035;-62
2021/07/02 06:51:37;;;;;;;10.23;3.45;;;;;;;20.40;63.41;98619.39;2073468;86;21537;-62
2021/07/02 06:54:38;;;;;;;12.33;3.85;;;;;;;20.74;62.59;98613.19;2036034;87;21079;-62
2021/07/02 06:57:38;;;;;;;9.15;3.42;;;;;;;20.81;60.24;98617.38;2073995;86;21047;-62
2021/07/02 07:00:39;;;;;;;8.25;3.20;;;;;;;20.77;61.00;98614.19;2073894;86;21614;-62
2021/07/02 07:03:40;;;;;;;10.77;3.97;;;;;;;20.75;61.13;98625.02;2036171;87;21506;-61
2021/07/02 07:06:40;;;;;;;13.13;3.90;;;;;;;20.58;60.04;98617.96;2073868;86;21023;-62
2021/07/02 07:09:40;;;;;;;9.43;3.92;;;;;;;20.82;60.13;98611.06;2074035;84;21072;-62
2021/07/02 07:12:41;;;;;;;10.03;3.75;;;;;;;20.84;58.54;98601.88;2074266;86;21066;-62
2021/07/02 07:15:41;;;;;;;10.93;4.12;;;;;;;20.94;59.29;98601.21;2074042;86;21079;-62
2021/07/02 07:18:42;;;;;;;11.10;3.75;;;;;;;21.16;60.27;98608.73;2074281;86;21501;-62
2021/07/02 07:21:42;;;;;;;11.28;4.25;;;;;;;21.38;57.91;98603.23;2074284;86;21553;-62
2021/07/02 07:24:43;;;;;;;14.40;3.80;;;;;;;21.34;58.83;98594.72;2074260;86;20995;-62
2021/07/02 07:27:44;;;;;;;8.98;3.42;;;;;;;21.28;55.62;98596.22;2074151;86;20980;-62
2021/07/02 07:30:44;;;;;;;11.88;4.08;;;;;;;21.36;57.60;98586.03;2034262;88;21027;-62
2021/07/02 07:33:47;;;;;;;12.67;4.00;;;;;;;21.51;56.25;98600.05;2027869;88;20996;-62
2021/07/02 07:36:53;;;;;;;8.65;3.80;;;;;;;21.62;57.29;98577.02;2002166;88;21051;-62
2021/07/02 07:39:50;;;;;;;8.83;3.15;;;;;;;21.91;56.94;98591.13;2002297;88;21059;-62
2021/07/02 07:42:51;;;;;;;8.40;3.40;;;;;;;21.93;56.15;98595.78;2027914;87;21597;-62
2021/07/02 07:45:52;;;;;;;9.93;3.70;;;;;;;22.07;55.70;98588.89;2027935;88;21044;-62
2021/07/02 07:48:53;;;;;;;9.97;3.33;;;;;;;22.28;55.49;98586.13;2028042;87;20987;-62
2021/07/02 07:54:55;;;;;;;;;;;;;;;21.94;53.98;98597.45;2030123;87;21542;-62
2021/07/02 07:57:55;;;;;;;9.83;3.20;;;;;;;21.95;55.19;98594.27;2027598;87;20118;-62
2021/07/02 08:00:56;;;;;;;9.43;3.20;;;;;;;21.61;54.33;98596.20;2027960;87;21052;-62
2021/07/02 08:03:56;;;;;;;10.20;3.33;;;;;;;21.26;53.97;98598.23;2027930;87;21028;-62
2021/07/02 08:06:57;;;;;;;9.33;3.33;;;;;;;20.96;55.45;98591.75;2027808;87;21004;-62
2021/07/02 08:09:57;;;;;;;6.25;2.95;;;;;;;21.10;55.76;98590.23;2028215;86;21609;-62
2021/07/02 08:12:58;;;;;;;6.95;3.30;;;;;;;21.38;57.09;98594.72;2029930;88;21051;-62
2021/07/02 08:15:58;;;;;;;5.25;2.90;;;;;;;21.28;55.87;98594.06;2030030;88;20972;-62
2021/07/02 08:18:59;;;;;;;8.40;3.20;;;;;;;21.51;55.64;98593.38;2035854;87;21119;-62
2021/07/02 08:22:00;;;;;;;7.63;3.30;;;;;;;22.05;53.34;98595.41;2076585;86;21019;-63
2021/07/02 08:25:00;;;;;;;9.13;3.67;;;;;;;22.25;52.58;98591.30;2076477;86;21066;-63
2021/07/02 08:31:03;;;;;;;7.67;3.22;;;;;;;22.58;52.63;98592.50;2071885;86;21007;-62
2021/07/02 08:34:03;;;;;;;6.47;3.03;;;;;;;22.61;52.04;98589.50;2076643;84;20999;-62
2021/07/02 08:37:04;;;;;;;12.83;3.60;;;;;;;22.45;51.99;98586.91;2076686;86;21019;-62
2021/07/02 08:40:04;;;;;;;15.43;3.50;;;;;;;21.82;51.78;98601.48;2076303;86;21042;-62
2021/07/02 08:43:05;;;;;;;8.43;3.40;;;;;;;21.48;53.44;98607.03;2076486;85;21015;-62
2021/07/02 08:46:05;;;;;;;9.87;3.50;;;;;;;21.65;52.34;98603.87;2036254;87;21022;-61
2021/07/02 08:49:06;;;;;;;9.40;3.27;;;;;;;22.04;50.82;98605.75;2076496;86;21003;-62
2021/07/02 08:52:06;;;;;;;9.47;3.60;;;;;;;22.44;51.99;98618.63;2076558;86;21506;-62
2021/07/02 08:55:07;;;;;;;10.40;3.60;;;;;;;22.73;51.05;98607.77;2076575;86;21549;-62
2021/07/02 08:58:08;;;;;;;9.43;3.25;;;;;;;22.56;52.27;98593.19;2076053;86;21531;-62
2021/07/02 09:01:08;;;;;;;9.73;3.60;;;;;;;22.39;52.41;98607.14;2076591;86;21007;-63
2021/07/02 09:04:09;;;;;;;11.10;3.60;;;;;;;22.25;52.56;98615.86;2076677;86;21015;-64
2021/07/02 09:07:09;;;;;;;16.57;4.03;;;;;;;22.14;51.86;98605.89;2076273;86;21065;-70
2021/07/02 09:10:10;;;;;;;11.37;3.40;;;;;;;22.23;51.63;98604.53;2036159;87;21083;-66
2021/07/02 09:13:10;;;;;;;6.83;3.37;;;;;;;22.14;51.05;98611.23;2073732;86;21513;-64
2021/07/02 09:16:11;;;;;;;7.13;3.23;;;;;;;22.27;52.12;98605.34;2073849;86;21546;-71
2021/07/02 09:19:11;;;;;;;7.53;3.20;;;;;;;22.41;51.58;98623.84;2073920;85;21459;-62
2021/07/02 09:22:12;;;;;;;8.50;3.60;;;;;;;22.38;52.28;98623.34;2073847;86;21082;-63
2021/07/02 09:25:12;;;;;;;12.43;3.57;;;;;;;22.51;51.49;98618.26;2073771;85;21014;-62
2021/07/02 09:28:13;;;;;;;9.37;3.30;;;;;;;22.56;51.79;98625.27;2073873;86;20995;-62
2021/07/02 09:31:13;;;;;;;9.90;3.50;;;;;;;22.58;49.84;98622.41;2074005;85;21027;-62
2021/07/02 09:34:17;;;;;;;13.40;3.63;;;;;;;22.57;51.39;98616.73;2073638;86;21039;-62
2021/07/02 09:37:16;;;;;;;8.03;3.27;;;;;;;22.51;51.18;98630.80;2075096;85;21115;-62
2021/07/02 09:40:18;;;;;;;7.23;3.17;;;;;;;22.38;51.71;98630.03;2073839;86;21038;-62
2021/07/02 09:43:19;;;;;;;7.97;3.50;;;;;;;22.39;51.79;98624.51;2075015;85;21498;-62
2021/07/02 09:46:19;;;;;;;10.87;3.67;;;;;;;22.93;49.19;98617.50;2036087;87;21059;-62
2021/07/02 09:49:20;;;;;;;8.13;3.33;;;;;;;22.76;51.08;98618.95;2073971;86;21003;-62
2021/07/02 09:52:20;;;;;;;6.97;3.00;;;;;;;22.57;52.18;98618.91;2073942;86;21011;-62
2021/07/02 09:55:21;;;;;;;8.17;3.33;;;;;;;22.46;50.91;98613.45;2073683;86;21071;-62
2021/07/02 09:58:22;;;;;;;10.40;3.23;;;;;;;22.31;50.68;98606.66;2073460;86;21597;-62
2021/07/02 10:01:23;;;;;;;12.10;3.53;;;;;;;22.34;50.93;98627.37;2036097;87;21066;-63
2021/07/02 10:04:23;;;;;;;8.53;3.33;;;;;;;22.34;52.07;98611.34;2073882;86;21059;-63
2021/07/02 10:07:25;;;;;;;9.37;3.50;;;;;;;22.35;50.48;98603.15;2074026;86;21063;-65
2021/07/02 10:10:25;;;;;;;8.45;3.30;;;;;;;22.92;52.37;98597.14;2036168;87;21063;-65
2021/07/02 10:13:26;;;;;;;9.17;3.10;;;;;;;22.94;49.65;98598.63;2073873;86;21463;-63
2021/07/02 10:16:27;;;;;;;11.23;3.40;;;;;;;22.97;49.25;98610.30;2074004;86;21542;-71
2021/07/02 10:19:27;;;;;;;10.13;2.80;;;;;;;23.08;48.69;98590.31;2073906;86;21063;-67
2021/07/02 10:22:28;;;;;;;13.03;3.27;;;;;;;23.23;50.36;98595.75;2073673;86;21014;-69
2021/07/02 10:25:28;;;;;;;6.43;3.07;;;;;;;23.15;49.74;98595.30;2073996;85;21019;-62
2021/07/02 10:28:30;;;;;;;7.40;3.20;;;;;;;23.59;49.25;98590.21;2073969;85;21039;-62
2021/07/02 10:31:31;;;;;;;9.35;2.90;;;;;;;23.65;46.84;98594.85;2035997;86;21138;-63
2021/07/02 10:34:31;;;;;;;8.03;2.97;;;;;;;23.18;47.64;98600.28;2073980;84;21478;-62
2021/07/02 10:37:32;;;;;;;7.63;3.20;;;;;;;22.76;47.47;98621.63;2073589;86;21542;-63
2021/07/02 10:40:32;;;;;;;7.07;3.10;;;;;;;22.50;48.85;98608.60;2073905;85;21011;-62
2021/07/02 10:43:33;;;;;;;9.30;3.20;;;;;;;22.48;49.83;98607.44;2073970;86;21011;-62
2021/07/02 10:46:33;;;;;;;7.93;3.10;;;;;;;22.74;49.57;98600.94;2074012;85;20972;-62
2021/07/02 10:49:34;;;;;;;9.53;3.10;;;;;;;23.33;48.32;98596.81;2073879;86;21011;-62
2021/07/02 10:52:40;;;;;;;7.53;3.00;;;;;;;23.84;48.69;98604.18;2073952;86;21011;-65
2021/07/02 10:55:37;;;;;;;8.73;3.08;;;;;;;23.92;47.12;98595.23;2075302;86;21103;-63
2021/07/02 10:58:37;;;;;;;10.27;3.30;;;;;;;23.80;47.89;98599.69;2073808;86;21086;-63
2021/07/02 11:01:38;;;;;;;5.60;2.70;;;;;;;23.34;47.14;98602.49;2073952;86;20980;-65
2021/07/02 11:04:38;;;;;;;6.13;3.00;;;;;;;22.99;47.77;98594.89;2073878;86;21479;-66
2021/07/02 11:07:39;;;;;;;10.87;3.10;;;;;;;22.86;49.08;98595.16;2073573;86;21012;-64
2021/07/02 11:10:39;;;;;;;9.70;3.13;;;;;;;22.84;48.49;98587.31;2073763;84;21028;-62
2021/07/02 11:13:40;;;;;;;8.67;2.97;;;;;;;23.23;48.90;98590.40;2073955;86;21082;-63
2021/07/02 11:16:42;;;;;;;7.87;2.90;;;;;;;23.55;48.03;98591.09;2035898;87;21088;-62
2021/07/02 11:19:42;;;;;;;7.33;3.10;;;;;;;23.46;48.69;98600.20;2073985;86;21032;-63
2021/07/02 11:22:42;;;;;;;8.03;3.27;;;;;;;23.22;47.90;98611.98;2073820;86;20971;-62
2021/07/02 11:28:47;;;;;;;7.23;3.13;;;;;;;23.68;45.58;98595.81;2073933;86;21585;-63
2021/07/02 11:31:46;;;;;;;9.65;3.70;;;;;;;24.11;47.27;98593.34;2075247;86;21103;-62
2021/07/02 11:34:47;;;;;;;8.23;3.20;;;;;;;24.55;45.99;98588.41;2073960;86;21038;-62
2021/07/02 11:37:47;;;;;;;10.10;3.30;;;;;;;24.99;46.09;98577.20;2073924;86;21047;-63
2021/07/02 11:40:48;;;;;;;9.20;3.60;;;;;;;24.52;45.31;98591.47;2074171;86;21008;-62
2021/07/02 11:43:48;;;;;;;8.73;3.50;;;;;;;23.96;46.42;98597.87;2073880;86;21011;-63
2021/07/02 11:46:49;;;;;;;10.10;3.57;;;;;;;23.61;48.28;98597.56;2074019;86;20979;-62
2021/07/02 11:49:49;;;;;;;10.37;3.50;;;;;;;23.39;47.64;98593.91;2073923;86;21126;-63
2021/07/02 11:52:50;;;;;;;10.27;3.70;;;;;;;23.26;48.40;98586.02;2073940;86;21624;-62
2021/07/02 11:55:50;;;;;;;8.37;3.40;;;;;;;23.22;48.21;98580.70;2073905;86;21035;-63
2021/07/02 11:58:51;;;;;;;7.42;3.27;;;;;;;23.22;47.20;98587.39;2036269;87;21051;-67
2021/07/02 12:01:56;;;;;;;10.10;3.70;;;;;;;23.28;48.24;98585.32;2074010;86;20964;-65
2021/07/02 12:04:54;;;;;;;9.28;3.33;;;;;;;23.28;47.80;98583.16;2075092;85;21019;-62
2021/07/02 12:07:55;;;;;;;10.07;3.33;;;;;;;23.28;47.30;98584.50;2074103;86;21043;-66
2021/07/02 12:10:56;;;;;;;12.07;3.47;;;;;;;23.50;47.82;98573.41;2036055;86;21079;-70
2021/07/02 12:13:56;;;;;;;9.50;3.40;;;;;;;23.77;46.94;98569.78;2073868;86;21004;-69
2021/07/02 12:16:57;;;;;;;10.13;3.27;;;;;;;23.88;46.16;98574.70;2073928;86;21064;-68
2021/07/02 12:19:57;;;;;;;12.33;3.40;;;;;;;23.55;47.40;98575.52;2073666;86;21577;-70
2021/07/02 12:22:57;;;;;;;9.73;3.13;;;;;;;23.20;46.58;98591.25;2073815;86;21487;-62
2021/07/02 12:25:58;;;;;;;12.60;3.33;;;;;;;23.00;46.95;98575.17;2073800;86;21489;-62
2021/07/02 12:28:59;;;;;;;7.23;3.10;;;;;;;23.20;49.02;98571.19;2073904;86;21007;-62
2021/07/02 12:32:00;;;;;;;9.18;3.05;;;;;;;23.41;47.67;98575.85;2036022;86;21628;-64
2021/07/02 12:35:00;;;;;;;6.40;3.10;;;;;;;24.19;47.15;98561.59;2073749;86;21050;-62
2021/07/02 12:38:01;;;;;;;10.97;3.20;;;;;;;24.87;43.95;98567.51;2073877;86;20980;-62
2021/07/02 12:41:01;;;;;;;6.93;3.47;;;;;;;24.64;45.82;98554.30;2073996;86;21040;-63
2021/07/02 12:44:02;;;;;;;9.33;3.50;;;;;;;24.47;45.86;98548.31;2073850;86;21108;-62
2021/07/02 12:47:03;;;;;;;9.03;3.10;;;;;;;24.12;45.48;98575.41;2073622;86;21054;-63
2021/07/02 12:50:05;;;;;;;7.73;3.03;;;;;;;23.90;45.76;98564.62;2073875;86;21060;-64
2021/07/02 12:56:08;;;;;;;8.40;3.22;;;;;;;24.32;45.50;98556.41;2075074;85;21094;-63
2021/07/02 12:59:09;;;;;;;11.22;3.37;;;;;;;24.63;44.11;98562.01;2073267;86;21123;-62
2021/07/02 13:02:10;;;;;;;8.40;3.20;;;;;;;24.80;44.69;98551.86;2073783;85;21070;-62
2021/07/02 13:05:11;;;;;;;11.70;3.37;;;;;;;24.67;45.01;98551.23;2073467;86;21102;-64
2021/07/02 13:08:11;;;;;;;9.40;3.57;;;;;;;24.36;44.59;98544.78;2073602;86;20995;-64
2021/07/02 13:11:12;;;;;;;9.57;3.43;;;;;;;23.94;45.25;98563.25;2081203;84;21017;-66
2021/07/02 13:14:12;;;;;;;8.87;3.63;;;;;;;23.69;46.94;98558.15;2116840;84;21573;-63
2021/07/02 13:17:13;;;;;;;10.07;3.67;;;;;;;23.71;47.02;98555.29;2116659;84;21076;-62
2021/07/02 13:20:13;;;;;;;11.90;3.30;;;;;;;23.88;46.41;98555.97;2116962;84;20996;-63
2021/07/02 13:23:14;;;;;;;8.40;3.30;;;;;;;23.88;46.85;98547.93;2116942;84;20980;-62
2021/07/02 13:26:15;;;;;;;8.63;3.40;;;;;;;23.92;45.92;98557.26;2116881;84;21096;-62
2021/07/02 13:29:15;;;;;;;14.30;3.65;;;;;;;23.99;45.33;98558.66;2075002;86;21040;-69
2021/07/02 13:32:16;;;;;;;9.83;3.27;;;;;;;24.04;45.52;98547.71;2074961;84;21000;-72
2021/07/02 13:35:16;;;;;;;7.50;3.00;;;;;;;24.36;44.29;98556.32;2075137;86;21474;-68
2021/07/02 13:38:17;;;;;;;9.03;3.20;;;;;;;24.69;43.98;98541.65;2075316;86;21460;-64
2021/07/02 13:41:17;;;;;;;13.13;3.10;;;;;;;25.10;45.13;98536.96;2075191;86;21028;-76
2021/07/02 13:44:18;;;;;;;10.53;3.33;;;;;;;25.28;42.76;98547.20;2075261;86;21047;-72
2021/07/02 13:47:18;;;;;;;8.63;2.93;;;;;;;25.20;43.51;98537.45;2075454;86;20963;-68
2021/07/02 13:50:20;;;;;;;13.77;3.27;;;;;;;25.34;44.28;98540.25;2075232;86;20971;-67
2021/07/02 13:53:21;;;;;;;5.85;2.85;;;;;;;25.33;43.37;98537.23;2074944;86;21104;-71
2021/07/02 13:56:21;;;;;;;9.87;3.00;;;;;;;24.98;42.56;98543.87;2075169;86;20992;-73
2021/07/02 13:59:22;;;;;;;10.33;3.20;;;;;;;24.76;43.21;98539.04;2075203;86;20979;-68
2021/07/02 14:02:22;;;;;;;9.00;2.97;;;;;;;24.88;44.27;98530.78;2075238;86;21032;-67
2021/07/02 14:05:23;;;;;;;7.57;2.90;;;;;;;25.11;45.00;98534.58;2075184;86;21016;-65
2021/07/02 14:08:24;;;;;;;9.93;3.20;;;;;;;25.44;43.52;98536.70;2075427;86;20980;-67
2021/07/02 14:11:24;;;;;;;9.03;3.17;;;;;;;25.44;43.51;98533.20;2069999;86;21129;-64
2021/07/02 14:14:25;;;;;;;11.03;3.30;;;;;;;25.71;41.56;98541.72;2074059;86;21114;-67
2021/07/02 14:17:26;;;;;;;9.88;3.42;;;;;;;25.65;41.99;98541.17;2073566;86;21075;-68
2021/07/02 14:20:26;;;;;;;8.47;3.20;;;;;;;25.22;42.48;98538.07;2073849;86;21019;-63
2021/07/02 14:23:27;;;;;;;10.10;3.13;;;;;;;25.04;43.40;98537.72;2073870;84;20999;-63